createdAt,value
2019-02-28T00:22:49.432Z,86.20
2019-02-28T00:25:17.962Z,86.50
2019-02-28T00:27:46.379Z,87.00
2019-02-28T00:30:17.842Z,87.00
2019-02-28T00:32:46.323Z,87.10
2019-02-28T00:35:14.743Z,87.10
2019-02-28T00:37:43.163Z,87.10
2019-02-28T00:40:12.018Z,87.30
2019-02-28T00:42:40.426Z,87.30
2019-02-28T00:45:14.014Z,87.30
2019-02-28T00:47:42.706Z,87.40
2019-02-28T00:50:11.272Z,87.30
2019-02-28T00:52:39.695Z,87.20
2019-02-28T00:55:10.815Z,87.20
2019-02-28T00:57:39.252Z,87.60
2019-02-28T01:00:16.406Z,87.80
2019-02-28T01:02:44.829Z,88.20
2019-02-28T01:05:13.491Z,88.30
2019-02-28T01:07:41.902Z,88.20
2019-02-28T01:10:11.854Z,88.00
2019-02-28T01:12:40.279Z,87.60
2019-02-28T01:15:16.994Z,87.20
2019-02-28T01:17:45.477Z,87.00
2019-02-28T01:20:16.309Z,86.80
2019-02-28T01:22:44.377Z,86.70
2019-02-28T01:25:14.933Z,86.80
2019-02-28T01:27:43.356Z,86.90
2019-02-28T01:30:13.882Z,87.10
2019-02-28T01:32:42.368Z,87.20
2019-02-28T01:35:10.845Z,87.30
2019-02-28T01:37:39.272Z,87.60
2019-02-28T01:40:12.571Z,87.60
2019-02-28T01:42:40.991Z,87.80
2019-02-28T01:45:11.911Z,88.10
2019-02-28T01:47:40.396Z,88.40
2019-02-28T01:50:11.422Z,88.30
2019-02-28T01:52:44.517Z,88.10
2019-02-28T01:55:11.026Z,87.90
2019-02-28T01:57:42.898Z,87.80
2019-02-28T02:00:17.727Z,88.00
2019-02-28T04:04:18.200Z,90.60
2019-02-28T04:06:46.615Z,90.70
2019-02-28T04:09:15.012Z,90.60
2019-02-28T04:11:43.418Z,90.80
2019-02-28T04:14:11.838Z,90.90
2019-02-28T04:16:40.250Z,91.20
2019-02-28T04:19:08.671Z,91.30
2019-02-28T04:21:37.077Z,91.20
2019-02-28T04:24:12.458Z,91.20
2019-02-28T04:26:35.642Z,91.10
2019-02-28T04:29:04.306Z,91.00
2019-02-28T04:31:32.716Z,90.90
2019-02-28T04:34:01.137Z,90.80
2019-02-28T04:36:35.506Z,90.80
2019-02-28T04:38:59.707Z,90.80
2019-02-28T04:41:32.642Z,90.70
2019-02-28T04:43:58.251Z,90.80
2019-02-28T04:46:28.302Z,90.70
2019-02-28T04:48:56.773Z,90.70
2019-02-28T04:51:25.293Z,91.10
2019-02-28T04:53:53.831Z,90.90
2019-02-28T04:56:22.245Z,91.10
2019-02-28T04:58:50.639Z,91.40
2019-02-28T05:01:19.045Z,91.30
2019-02-28T05:03:47.445Z,91.40
2019-02-28T05:06:18.370Z,91.50
2019-02-28T05:08:45.988Z,91.50
2019-02-28T05:11:14.401Z,91.70
2019-02-28T05:13:48.226Z,91.70
2019-02-28T05:16:13.182Z,91.90
2019-02-28T05:18:41.730Z,91.80
2019-02-28T05:21:10.140Z,92.00
2019-02-28T05:23:38.564Z,92.00
2019-02-28T05:26:07.766Z,91.90
2019-02-28T05:28:40.160Z,92.20
2019-02-28T05:31:06.305Z,92.20
2019-02-28T05:33:34.756Z,92.00
2019-02-28T05:36:04.306Z,91.90
2019-02-28T05:38:32.846Z,91.90
2019-02-28T05:41:01.583Z,91.90
2019-02-28T05:43:32.205Z,91.90
2019-02-28T05:46:00.125Z,92.10
2019-02-28T05:48:28.534Z,92.20
2019-02-28T05:50:56.947Z,92.30
2019-02-28T05:53:25.353Z,92.10
2019-02-28T05:55:58.826Z,92.10
2019-02-28T05:58:23.896Z,91.90
2019-02-28T06:00:52.309Z,92.00
2019-02-28T06:03:20.725Z,92.00
2019-02-28T06:05:49.141Z,92.00
2019-02-28T06:08:17.556Z,92.10
2019-02-28T06:10:46.422Z,92.10
2019-02-28T06:13:15.291Z,92.10
2019-02-28T06:15:45.213Z,92.30
2019-02-28T06:18:14.015Z,92.30
2019-02-28T06:20:42.433Z,92.50
2019-02-28T06:23:10.845Z,92.50
2019-02-28T06:25:39.328Z,92.60
2019-02-28T06:28:07.760Z,92.30
2019-02-28T06:30:36.163Z,92.30
2019-02-28T06:33:04.641Z,92.20
2019-02-28T06:35:33.051Z,92.10
2019-02-28T06:38:01.461Z,92.10
2019-02-28T06:40:32.598Z,91.80
2019-02-28T06:42:59.988Z,91.70
2019-02-28T06:45:28.386Z,91.70
2019-02-28T06:47:56.800Z,91.80
2019-02-28T06:50:25.196Z,91.70
2019-02-28T06:52:56.452Z,91.60
2019-02-28T06:55:25.297Z,91.40
2019-02-28T06:57:53.769Z,91.30
2019-02-28T07:00:22.581Z,90.80
2019-02-28T07:02:51.002Z,90.40
2019-02-28T07:05:24.855Z,90.30
2019-02-28T07:07:50.141Z,90.30
2019-02-28T07:10:18.852Z,90.30
2019-02-28T07:12:47.537Z,90.50
2019-02-28T07:15:16.012Z,90.40
2019-02-28T07:17:46.529Z,89.90
2019-02-28T07:20:20.619Z,89.40
2019-02-28T07:22:54.636Z,89.20
2019-02-28T07:25:19.163Z,88.60
2019-02-28T07:27:47.574Z,87.80
2019-02-28T07:30:18.906Z,86.90
2019-02-28T07:32:54.538Z,86.60
2019-02-28T07:35:22.949Z,87.10
2019-02-28T07:37:54.367Z,87.00
2019-02-28T07:40:21.510Z,86.90
2019-02-28T07:42:49.928Z,85.90
2019-02-28T07:45:18.331Z,85.90
2019-02-28T07:47:51.700Z,86.20
2019-02-28T07:50:17.337Z,86.40
2019-02-28T07:52:45.802Z,85.50
2019-02-28T07:55:16.827Z,85.90
2019-02-28T07:57:45.233Z,84.80
2019-02-28T08:00:24.442Z,84.40
2019-02-28T08:02:52.994Z,83.80
2019-02-28T08:05:21.765Z,81.20
2019-02-28T08:07:52.575Z,80.70
2019-02-28T08:10:25.509Z,76.20
2019-02-28T08:12:54.030Z,75.70
2019-02-28T08:15:24.084Z,74.10
2019-02-28T08:17:52.597Z,72.80
2019-02-28T08:20:21.398Z,71.10
2019-02-28T08:22:49.882Z,70.10
2019-02-28T08:25:18.280Z,69.50
2019-02-28T08:27:46.699Z,68.70
2019-02-28T08:30:21.061Z,67.30
2019-02-28T08:32:49.899Z,67.30
2019-02-28T08:35:18.358Z,67.00
2019-02-28T08:37:46.849Z,66.50
2019-02-28T08:40:20.771Z,66.50
2019-02-28T08:42:50.001Z,65.10
2019-02-28T08:45:18.848Z,64.60
2019-02-28T08:47:47.346Z,64.80
2019-02-28T08:50:23.447Z,64.40
2019-02-28T08:53:02.268Z,64.20
2019-02-28T08:55:44.264Z,63.90
2019-02-28T08:58:11.784Z,63.90
2019-02-28T09:00:40.207Z,63.60
2019-02-28T09:03:08.618Z,63.60
2019-02-28T09:05:37.033Z,63.20
2019-02-28T09:08:05.442Z,63.40
2019-02-28T09:10:33.865Z,63.80
2019-02-28T09:13:02.273Z,63.50
2019-02-28T09:15:31.334Z,63.40
2019-02-28T09:18:07.346Z,63.20
2019-02-28T09:20:36.092Z,63.40
2019-02-28T09:23:14.442Z,63.20
2019-02-28T09:25:42.863Z,62.90
2019-02-28T09:28:13.016Z,62.80
2019-02-28T09:30:47.424Z,63.40
2019-02-28T09:33:15.872Z,63.60
2019-02-28T09:35:46.236Z,63.70
2019-02-28T09:38:14.566Z,63.50
2019-02-28T09:40:43.028Z,63.10
2019-02-28T09:43:11.471Z,63.00
2019-02-28T09:45:41.066Z,62.50
2019-02-28T09:48:10.235Z,63.00
2019-02-28T09:50:38.849Z,62.80
2019-02-28T09:53:07.319Z,63.00
2019-02-28T09:55:36.190Z,63.00
2019-02-28T09:58:04.671Z,62.40
2019-02-28T10:00:33.560Z,62.50
2019-02-28T10:03:02.003Z,62.40
2019-02-28T10:05:30.456Z,63.20
2019-02-28T10:08:02.868Z,62.30
2019-02-28T10:10:32.152Z,62.90
2019-02-28T10:13:00.656Z,62.50
2019-02-28T10:15:29.093Z,62.00
2019-02-28T10:18:00.732Z,62.40
2019-02-28T10:20:38.932Z,62.40
2019-02-28T10:23:07.371Z,62.30
2019-02-28T10:25:41.055Z,62.10
2019-02-28T10:28:06.037Z,62.00
2019-02-28T10:30:34.498Z,62.40
2019-02-28T10:33:03.080Z,61.90
2019-02-28T10:35:33.481Z,62.00
2019-02-28T10:38:01.669Z,61.60
2019-02-28T10:40:31.364Z,61.90
2019-02-28T10:42:59.815Z,61.60
2019-02-28T10:45:28.587Z,61.90
2019-02-28T10:47:57.040Z,62.20
2019-02-28T10:50:33.324Z,62.40
2019-02-28T10:53:04.046Z,62.20
2019-02-28T10:55:30.198Z,62.80
2019-02-28T10:57:58.717Z,63.40
2019-02-28T11:00:32.824Z,62.70
2019-02-28T11:03:02.280Z,63.10
2019-02-28T11:05:35.931Z,63.60
2019-02-28T11:08:05.717Z,61.60
2019-02-28T11:10:42.376Z,61.10
2019-02-28T11:13:22.193Z,61.50
2019-02-28T11:15:51.330Z,61.40
2019-02-28T11:18:19.824Z,61.20
2019-02-28T11:20:58.170Z,61.50
2019-02-28T11:23:27.205Z,61.60
2019-02-28T11:25:55.779Z,61.70
2019-02-28T11:28:27.772Z,61.90
2019-02-28T11:30:55.107Z,61.50
2019-02-28T11:33:23.686Z,61.60
2019-02-28T11:35:57.830Z,62.00
2019-02-28T11:38:32.553Z,62.40
2019-02-28T11:41:01.006Z,61.60
2019-02-28T11:43:29.501Z,61.70
2019-02-28T11:46:04.609Z,61.90
2019-02-28T11:48:33.046Z,61.70
2019-02-28T11:51:01.772Z,61.90
2019-02-28T11:53:40.575Z,61.50
2019-02-28T11:56:09.366Z,62.60
2019-02-28T11:58:37.775Z,62.10
2019-02-28T12:01:10.201Z,62.00
2019-02-28T12:03:36.588Z,61.60
2019-02-28T12:06:06.801Z,61.40
2019-02-28T12:08:35.629Z,61.90
2019-02-28T12:11:04.101Z,61.40
2019-02-28T12:13:32.537Z,61.30
2019-02-28T12:16:00.928Z,61.20
2019-02-28T12:18:29.348Z,61.00
2019-02-28T12:20:58.652Z,61.00
2019-02-28T12:23:28.455Z,61.90
2019-02-28T12:25:56.845Z,61.50
2019-02-28T12:28:25.264Z,61.90
2019-02-28T12:30:53.744Z,61.70
2019-02-28T12:33:23.345Z,60.90
2019-02-28T12:35:52.055Z,60.60
2019-02-28T12:38:20.480Z,59.70
2019-02-28T12:40:49.587Z,59.70
2019-02-28T12:43:18.780Z,59.40
2019-02-28T12:45:47.628Z,59.10
2019-02-28T12:48:16.666Z,59.30
2019-02-28T12:50:45.055Z,59.20
2019-02-28T12:53:13.479Z,59.30
2019-02-28T12:55:41.888Z,59.40
2019-02-28T12:58:10.307Z,58.80
2019-02-28T13:00:41.419Z,58.60
2019-02-28T13:03:10.274Z,59.00
2019-02-28T13:05:38.782Z,58.20
2019-02-28T13:08:13.023Z,58.10
2019-02-28T13:10:51.449Z,58.10
2019-02-28T13:13:28.800Z,58.00
2019-02-28T13:15:55.937Z,57.90
2019-02-28T13:18:24.351Z,58.40
2019-02-28T13:20:52.763Z,57.90
2019-02-28T13:23:21.489Z,58.50
2019-02-28T13:25:50.179Z,58.20
2019-02-28T13:28:23.653Z,58.10
2019-02-28T13:30:52.721Z,57.90
2019-02-28T13:33:22.620Z,57.90
2019-02-28T13:35:51.035Z,58.00
2019-02-28T13:38:19.935Z,58.00
2019-02-28T13:40:48.928Z,57.80
2019-02-28T13:43:21.001Z,57.20
2019-02-28T13:45:50.633Z,57.50
2019-02-28T13:48:25.666Z,57.40
2019-02-28T13:50:47.829Z,57.40
2019-02-28T13:53:17.756Z,57.20
2019-02-28T13:55:46.391Z,57.00
2019-02-28T13:58:17.615Z,56.90
2019-02-28T14:00:51.017Z,57.40
2019-02-28T14:03:19.426Z,57.30
2019-02-28T14:05:47.844Z,57.00
2019-02-28T14:08:16.270Z,57.00
2019-02-28T14:10:44.895Z,56.30
2019-02-28T14:13:13.410Z,56.40
2019-02-28T14:15:48.047Z,56.10
2019-02-28T14:18:16.700Z,55.70
2019-02-28T14:20:45.105Z,56.70
2019-02-28T14:23:13.774Z,57.20
2019-02-28T14:25:42.189Z,57.60
2019-02-28T14:28:10.688Z,57.50
2019-02-28T14:30:39.149Z,56.80
2019-02-28T14:33:08.504Z,56.40
2019-02-28T14:35:38.676Z,55.70
2019-02-28T14:38:07.120Z,55.80
2019-02-28T14:40:35.599Z,56.40
2019-02-28T14:43:04.106Z,55.80
2019-02-28T14:45:44.404Z,56.00
2019-02-28T14:48:12.830Z,55.80
2019-02-28T14:50:41.293Z,56.90
2019-02-28T14:53:14.317Z,56.30
2019-02-28T14:55:41.480Z,56.90
2019-02-28T14:58:09.917Z,56.60
2019-02-28T15:00:38.899Z,57.00
2019-02-28T15:03:08.896Z,56.00
2019-02-28T15:05:40.036Z,56.10
2019-02-28T15:08:11.745Z,56.00
2019-02-28T15:10:40.813Z,57.20
2019-02-28T15:13:09.325Z,59.70
2019-02-28T15:15:37.909Z,60.10
2019-02-28T15:18:06.428Z,59.70
2019-02-28T15:20:34.866Z,58.00
2019-02-28T15:23:03.407Z,57.70
2019-02-28T15:25:31.936Z,57.20
2019-02-28T15:28:00.487Z,57.00
2019-02-28T15:30:35.004Z,56.70
2019-02-28T15:33:03.635Z,56.80
2019-02-28T15:35:32.221Z,57.20
2019-02-28T15:38:00.694Z,57.50
2019-02-28T15:40:40.840Z,57.70
2019-02-28T15:43:09.998Z,57.80
2019-02-28T15:45:38.794Z,57.70
2019-02-28T15:48:07.224Z,57.90
2019-02-28T15:50:35.665Z,57.40
2019-02-28T15:53:04.929Z,57.60
2019-02-28T15:55:35.041Z,57.80
2019-02-28T15:58:05.980Z,58.10
2019-02-28T16:00:36.046Z,58.10
2019-02-28T16:03:05.522Z,57.90
2019-02-28T16:05:34.258Z,57.80
2019-02-28T16:08:09.017Z,58.00
2019-02-28T16:10:36.238Z,59.00
2019-02-28T16:13:07.074Z,58.70
2019-02-28T16:15:36.327Z,58.90
2019-02-28T16:18:08.609Z,59.40
2019-02-28T16:20:35.934Z,60.80
2019-02-28T16:23:04.434Z,61.90
2019-02-28T16:25:34.958Z,62.80
2019-02-28T16:28:07.232Z,63.20
2019-02-28T16:30:34.493Z,63.40
2019-02-28T16:33:02.989Z,63.60
2019-02-28T16:35:31.509Z,63.50
2019-02-28T16:38:00.299Z,63.70
2019-02-28T16:40:32.627Z,63.80
2019-02-28T16:43:01.078Z,64.10
2019-02-28T16:45:43.920Z,64.40
2019-02-28T16:48:12.630Z,65.00
2019-02-28T16:50:41.058Z,65.70
2019-02-28T16:53:15.042Z,66.20
2019-02-28T16:55:39.705Z,66.50
2019-02-28T16:58:08.148Z,67.10
2019-02-28T17:00:39.604Z,67.30
2019-02-28T17:03:07.402Z,67.70
2019-02-28T17:05:36.939Z,68.40
2019-02-28T17:08:06.816Z,69.10
2019-02-28T17:10:40.160Z,69.60
2019-02-28T17:13:14.752Z,69.90
2019-02-28T17:16:01.532Z,70.30
2019-02-28T17:18:28.743Z,70.60
2019-02-28T17:20:57.190Z,70.80
2019-02-28T17:23:26.085Z,71.30
2019-02-28T17:25:56.541Z,71.60
2019-02-28T17:28:26.738Z,71.90
2019-02-28T17:30:59.634Z,72.30
2019-02-28T17:33:28.497Z,72.50
2019-02-28T17:35:57.404Z,72.70
2019-02-28T17:38:25.900Z,73.00
2019-02-28T17:40:54.375Z,73.10
2019-02-28T17:43:24.432Z,73.50
2019-02-28T17:45:53.333Z,73.60
2019-02-28T17:48:56.342Z,73.70
2019-02-28T17:51:30.587Z,74.00
2019-02-28T17:54:20.823Z,74.00
2019-02-28T17:56:56.298Z,74.00
2019-02-28T17:59:45.617Z,74.10
2019-02-28T18:02:28.887Z,74.00
2019-02-28T18:05:05.899Z,73.90
2019-02-28T18:08:11.111Z,73.90
2019-02-28T18:11:03.646Z,73.70
2019-02-28T18:14:06.768Z,73.60
2019-02-28T18:16:58.648Z,73.50
2019-02-28T18:19:44.974Z,73.50
2019-02-28T18:22:19.721Z,73.50
2019-02-28T18:25:18.542Z,73.50
2019-02-28T18:27:59.252Z,73.10
2019-02-28T18:30:30.771Z,73.00
2019-02-28T18:32:59.194Z,73.00
2019-02-28T18:35:29.186Z,73.10
2019-02-28T18:38:00.810Z,73.20
2019-02-28T18:40:27.964Z,73.50
2019-02-28T18:42:56.517Z,73.50
2019-02-28T18:45:24.991Z,73.50
2019-02-28T18:47:53.443Z,73.60
2019-02-28T18:50:21.886Z,73.70
2019-02-28T18:52:50.331Z,74.00
2019-02-28T18:55:18.764Z,74.10
2019-02-28T18:57:47.226Z,74.30
2019-02-28T19:00:18.130Z,74.50
2019-02-28T19:02:46.558Z,74.90
2019-02-28T19:05:15.357Z,75.20
2019-02-28T19:07:43.865Z,75.50
2019-02-28T19:10:12.433Z,75.70
2019-02-28T19:12:40.889Z,75.80
2019-02-28T19:15:12.749Z,75.90
2019-02-28T19:17:41.200Z,75.90
2019-02-28T19:20:11.539Z,76.20
2019-02-28T19:22:40.376Z,76.00
2019-02-28T19:25:12.504Z,75.90
2019-02-28T19:27:41.293Z,75.80
2019-02-28T19:30:15.106Z,75.70
2019-02-28T19:32:43.700Z,75.80
2019-02-28T19:35:12.277Z,75.60
2019-02-28T19:37:40.790Z,75.40
2019-02-28T19:40:13.938Z,75.30
2019-02-28T19:42:42.721Z,75.10
2019-02-28T19:45:14.533Z,74.80
2019-02-28T19:47:42.997Z,74.60
2019-02-28T19:50:12.101Z,74.40
2019-02-28T19:52:40.561Z,74.50
2019-02-28T19:55:15.553Z,74.50
2019-02-28T19:57:44.067Z,74.50
2019-02-28T20:00:21.389Z,74.20
2019-02-28T20:02:49.908Z,74.40
2019-02-28T20:05:19.029Z,74.20
2019-02-28T20:07:47.458Z,74.10
2019-02-28T20:10:17.356Z,74.10
2019-02-28T20:12:45.841Z,74.20
2019-02-28T20:15:15.919Z,74.40
2019-02-28T20:17:44.796Z,74.50
2019-02-28T20:20:16.427Z,74.50
2019-02-28T20:22:45.041Z,74.80
2019-02-28T20:25:14.215Z,75.00
2019-02-28T20:27:42.661Z,75.10
2019-02-28T20:30:16.825Z,75.10
2019-02-28T20:32:45.271Z,75.10
2019-02-28T20:35:14.487Z,75.10
2019-02-28T20:37:43.248Z,75.10
2019-02-28T20:40:17.377Z,75.20
2019-02-28T20:42:45.873Z,74.80
2019-02-28T20:45:14.374Z,75.00
2019-02-28T20:47:42.825Z,74.90
2019-02-28T20:50:26.071Z,75.00
2019-02-28T20:52:54.829Z,75.00
2019-02-28T20:55:23.264Z,75.00
2019-02-28T20:57:51.706Z,75.20
2019-02-28T21:00:21.777Z,75.30
2019-02-28T21:02:50.221Z,75.30
2019-02-28T21:05:18.984Z,75.30
2019-02-28T21:07:47.418Z,75.40
2019-02-28T21:10:16.298Z,75.40
2019-02-28T21:12:44.738Z,75.50
2019-02-28T21:15:14.695Z,75.60
2019-02-28T21:17:43.144Z,75.60
2019-02-28T21:20:13.738Z,75.60
2019-02-28T21:22:42.324Z,75.70
2019-02-28T21:25:15.983Z,75.90
2019-02-28T21:27:44.404Z,75.90
2019-02-28T21:30:26.818Z,76.20
2019-02-28T21:32:55.286Z,76.40
2019-02-28T21:35:25.558Z,76.50
2019-02-28T21:37:54.021Z,76.60
2019-02-28T21:40:23.277Z,76.80
2019-02-28T21:42:51.829Z,76.90
2019-02-28T21:45:22.837Z,76.90
2019-02-28T21:47:51.352Z,77.20
2019-02-28T21:50:20.281Z,77.40
2019-02-28T21:52:49.073Z,77.80
2019-02-28T21:55:18.142Z,77.90
2019-02-28T21:57:46.560Z,78.10
2019-02-28T22:00:18.102Z,78.20
2019-02-28T22:02:46.537Z,78.40
2019-02-28T22:05:15.260Z,78.60
2019-02-28T22:07:44.640Z,78.90
2019-02-28T22:10:14.593Z,78.90
2019-02-28T22:12:43.004Z,79.10
2019-02-28T22:15:17.117Z,79.10
2019-02-28T22:17:45.634Z,79.50
2019-02-28T22:20:14.856Z,79.60
2019-02-28T22:22:43.455Z,79.60
2019-02-28T22:25:16.478Z,79.70
2019-02-28T22:27:45.195Z,79.70
2019-02-28T22:30:36.221Z,79.60
2019-02-28T22:33:23.007Z,79.70
2019-02-28T22:35:55.808Z,79.90
2019-02-28T22:38:24.240Z,81.20
2019-02-28T22:40:52.768Z,81.40
2019-02-28T22:43:21.198Z,81.90
2019-02-28T22:45:49.647Z,82.90
2019-02-28T22:48:18.083Z,83.00
2019-02-28T22:50:46.871Z,83.00
2019-02-28T22:53:15.315Z,83.50
2019-02-28T22:55:43.752Z,83.60
2019-02-28T22:58:12.459Z,84.00
2019-02-28T23:01:03.378Z,84.60
2019-02-28T23:03:34.250Z,86.40
2019-02-28T23:06:03.178Z,87.60
2019-02-28T23:08:31.614Z,88.20
2019-02-28T23:11:00.102Z,89.90
2019-02-28T23:13:28.541Z,90.50
2019-02-28T23:15:57.040Z,90.90
2019-02-28T23:18:25.746Z,91.30
2019-02-28T23:20:54.185Z,91.80
2019-02-28T23:23:22.637Z,91.90
2019-02-28T23:25:51.114Z,92.20
2019-02-28T23:28:31.442Z,92.50
2019-02-28T23:31:11.945Z,92.80
2019-02-28T23:33:40.374Z,93.00
2019-02-28T23:36:08.830Z,93.40
2019-02-28T23:38:37.258Z,93.40
2019-02-28T23:41:06.168Z,93.50
2019-02-28T23:43:34.613Z,93.70
2019-02-28T23:46:03.054Z,93.70
2019-02-28T23:48:31.863Z,93.70
2019-02-28T23:51:00.288Z,93.70
2019-02-28T23:53:29.149Z,93.80
2019-02-28T23:55:57.613Z,94.00
2019-02-28T23:58:26.050Z,93.80
